sensor_id;sensor_type;location;lat;lon;timestamp;temperature;humidity
78514;SHT31;67814;51.976;5.810;2023-07-31T00:00:12;17.8;76.9
78514;SHT31;67814;51.976;5.810;2023-07-31T00:02:41;17.8;77.2
78514;SHT31;67814;51.976;5.810;2023-07-31T00:05:10;17.8;77.2
78514;SHT31;67814;51.976;5.810;2023-07-31T00:07:38;17.9;77.6
78514;SHT31;67814;51.976;5.810;2023-07-31T00:10:07;17.9;76.8
78514;SHT31;67814;51.976;5.810;2023-07-31T00:12:37;17.9;77.0
78514;SHT31;67814;51.976;5.810;2023-07-31T00:15:06;17.9;77.0
78514;SHT31;67814;51.976;5.810;2023-07-31T00:17:36;17.9;77.6
78514;SHT31;67814;51.976;5.810;2023-07-31T00:20:05;17.9;77.2
78514;SHT31;67814;51.976;5.810;2023-07-31T00:22:35;18.0;77.2
78514;SHT31;67814;51.976;5.810;2023-07-31T00:25:04;18.0;77.1
78514;SHT31;67814;51.976;5.810;2023-07-31T00:27:32;18.0;76.8
78514;SHT31;67814;51.976;5.810;2023-07-31T00:30:01;18.0;76.9
78514;SHT31;67814;51.976;5.810;2023-07-31T00:32:29;18.0;77.0
78514;SHT31;67814;51.976;5.810;2023-07-31T00:34:58;18.0;77.4
78514;SHT31;67814;51.976;5.810;2023-07-31T00:37:27;18.0;77.5
78514;SHT31;67814;51.976;5.810;2023-07-31T00:39:55;18.1;77.6
78514;SHT31;67814;51.976;5.810;2023-07-31T00:42:24;18.1;77.8
78514;SHT31;67814;51.976;5.810;2023-07-31T00:44:52;18.1;77.8
78514;SHT31;67814;51.976;5.810;2023-07-31T00:47:21;18.2;77.9
78514;SHT31;67814;51.976;5.810;2023-07-31T00:49:50;18.2;78.1
78514;SHT31;67814;51.976;5.810;2023-07-31T00:52:19;18.3;78.0
78514;SHT31;67814;51.976;5.810;2023-07-31T00:54:49;18.3;78.2
78514;SHT31;67814;51.976;5.810;2023-07-31T00:57:18;18.3;78.5
78514;SHT31;67814;51.976;5.810;2023-07-31T00:59:47;18.4;78.8
78514;SHT31;67814;51.976;5.810;2023-07-31T01:02:16;18.4;78.8
78514;SHT31;67814;51.976;5.810;2023-07-31T01:04:46;18.5;78.8
78514;SHT31;67814;51.976;5.810;2023-07-31T01:07:25;18.5;78.9
78514;SHT31;67814;51.976;5.810;2023-07-31T01:10:04;18.5;78.9
78514;SHT31;67814;51.976;5.810;2023-07-31T01:12:38;18.6;79.2
78514;SHT31;67814;51.976;5.810;2023-07-31T01:15:09;18.6;79.1
78514;SHT31;67814;51.976;5.810;2023-07-31T01:17:43;18.6;79.0
78514;SHT31;67814;51.976;5.810;2023-07-31T01:20:17;18.6;78.9
78514;SHT31;67814;51.976;5.810;2023-07-31T01:23:08;18.7;78.9
78514;SHT31;67814;51.976;5.810;2023-07-31T01:26:03;18.7;78.7
78514;SHT31;67814;51.976;5.810;2023-07-31T01:28:43;18.7;78.6
78514;SHT31;67814;51.976;5.810;2023-07-31T01:31:18;18.7;78.5
78514;SHT31;67814;51.976;5.810;2023-07-31T01:33:48;18.7;78.6
78514;SHT31;67814;51.976;5.810;2023-07-31T01:36:17;18.8;78.1
78514;SHT31;67814;51.976;5.810;2023-07-31T01:38:46;18.8;78.1
78514;SHT31;67814;51.976;5.810;2023-07-31T01:41:16;18.8;78.2
78514;SHT31;67814;51.976;5.810;2023-07-31T01:43:45;18.8;77.9
78514;SHT31;67814;51.976;5.810;2023-07-31T01:46:14;18.9;77.5
78514;SHT31;67814;51.976;5.810;2023-07-31T01:48:42;18.9;77.4
78514;SHT31;67814;51.976;5.810;2023-07-31T01:51:11;18.9;77.5
78514;SHT31;67814;51.976;5.810;2023-07-31T01:53:39;18.9;77.2
78514;SHT31;67814;51.976;5.810;2023-07-31T01:56:08;18.9;77.1
78514;SHT31;67814;51.976;5.810;2023-07-31T01:58:36;18.9;77.2
78514;SHT31;67814;51.976;5.810;2023-07-31T02:01:05;19.0;76.7
78514;SHT31;67814;51.976;5.810;2023-07-31T02:03:33;19.0;76.7
78514;SHT31;67814;51.976;5.810;2023-07-31T02:06:02;19.0;76.8
78514;SHT31;67814;51.976;5.810;2023-07-31T02:08:30;19.0;76.8
78514;SHT31;67814;51.976;5.810;2023-07-31T02:10:59;19.0;76.8
78514;SHT31;67814;51.976;5.810;2023-07-31T02:13:27;19.0;76.7
78514;SHT31;67814;51.976;5.810;2023-07-31T02:15:56;19.0;77.0
78514;SHT31;67814;51.976;5.810;2023-07-31T02:18:24;19.0;76.8
78514;SHT31;67814;51.976;5.810;2023-07-31T02:20:53;19.0;76.8
78514;SHT31;67814;51.976;5.810;2023-07-31T02:23:23;18.9;76.8
78514;SHT31;67814;51.976;5.810;2023-07-31T02:25:52;18.9;77.2
78514;SHT31;67814;51.976;5.810;2023-07-31T02:28:20;18.9;77.3
78514;SHT31;67814;51.976;5.810;2023-07-31T02:30:50;18.8;77.6
78514;SHT31;67814;51.976;5.810;2023-07-31T02:33:19;18.8;77.4
78514;SHT31;67814;51.976;5.810;2023-07-31T02:35:47;18.7;78.1
78514;SHT31;67814;51.976;5.810;2023-07-31T02:38:16;18.7;78.3
78514;SHT31;67814;51.976;5.810;2023-07-31T02:40:44;18.7;78.4
78514;SHT31;67814;51.976;5.810;2023-07-31T02:43:14;18.6;78.7
78514;SHT31;67814;51.976;5.810;2023-07-31T02:45:42;18.6;78.5
78514;SHT31;67814;51.976;5.810;2023-07-31T02:48:11;18.6;78.8
78514;SHT31;67814;51.976;5.810;2023-07-31T02:50:41;18.6;78.7
78514;SHT31;67814;51.976;5.810;2023-07-31T02:53:10;18.6;78.7
78514;SHT31;67814;51.976;5.810;2023-07-31T02:55:38;18.6;78.9
78514;SHT31;67814;51.976;5.810;2023-07-31T02:58:07;18.6;78.7
78514;SHT31;67814;51.976;5.810;2023-07-31T03:00:35;18.6;78.3
78514;SHT31;67814;51.976;5.810;2023-07-31T03:03:03;18.6;78.3
78514;SHT31;67814;51.976;5.810;2023-07-31T03:05:32;18.6;78.4
78514;SHT31;67814;51.976;5.810;2023-07-31T03:08:01;18.6;78.0
78514;SHT31;67814;51.976;5.810;2023-07-31T03:10:30;18.6;77.8
78514;SHT31;67814;51.976;5.810;2023-07-31T03:12:58;18.6;77.3
78514;SHT31;67814;51.976;5.810;2023-07-31T03:15:27;18.6;77.4
78514;SHT31;67814;51.976;5.810;2023-07-31T03:17:55;18.7;77.2
78514;SHT31;67814;51.976;5.810;2023-07-31T03:20:24;18.7;77.1
78514;SHT31;67814;51.976;5.810;2023-07-31T03:22:52;18.7;77.3
78514;SHT31;67814;51.976;5.810;2023-07-31T03:25:21;18.7;76.5
78514;SHT31;67814;51.976;5.810;2023-07-31T03:27:49;18.7;76.4
78514;SHT31;67814;51.976;5.810;2023-07-31T03:30:18;18.7;76.2
78514;SHT31;67814;51.976;5.810;2023-07-31T03:32:46;18.7;76.3
78514;SHT31;67814;51.976;5.810;2023-07-31T03:35:15;18.7;76.0
78514;SHT31;67814;51.976;5.810;2023-07-31T03:37:43;18.8;75.7
78514;SHT31;67814;51.976;5.810;2023-07-31T03:40:12;18.8;75.5
78514;SHT31;67814;51.976;5.810;2023-07-31T03:42:40;18.8;75.4
78514;SHT31;67814;51.976;5.810;2023-07-31T03:45:10;18.8;75.3
78514;SHT31;67814;51.976;5.810;2023-07-31T03:47:38;18.8;75.5
78514;SHT31;67814;51.976;5.810;2023-07-31T03:50:07;18.8;75.6
78514;SHT31;67814;51.976;5.810;2023-07-31T03:52:36;18.8;75.8
78514;SHT31;67814;51.976;5.810;2023-07-31T03:55:05;18.8;75.1
78514;SHT31;67814;51.976;5.810;2023-07-31T03:57:33;18.8;75.4
78514;SHT31;67814;51.976;5.810;2023-07-31T04:00:02;18.8;74.8
78514;SHT31;67814;51.976;5.810;2023-07-31T04:02:31;18.8;74.4
78514;SHT31;67814;51.976;5.810;2023-07-31T04:04:59;18.8;74.3
78514;SHT31;67814;51.976;5.810;2023-07-31T04:07:28;18.8;74.6
78514;SHT31;67814;51.976;5.810;2023-07-31T04:09:57;18.8;73.8
78514;SHT31;67814;51.976;5.810;2023-07-31T04:12:28;18.8;73.9
78514;SHT31;67814;51.976;5.810;2023-07-31T04:14:56;18.8;74.2
78514;SHT31;67814;51.976;5.810;2023-07-31T04:17:24;18.8;74.5
78514;SHT31;67814;51.976;5.810;2023-07-31T04:19:53;18.8;74.3
78514;SHT31;67814;51.976;5.810;2023-07-31T04:22:21;18.8;74.3
78514;SHT31;67814;51.976;5.810;2023-07-31T04:24:50;18.8;74.1
78514;SHT31;67814;51.976;5.810;2023-07-31T04:27:20;18.8;74.1
78514;SHT31;67814;51.976;5.810;2023-07-31T04:29:49;18.8;74.7
78514;SHT31;67814;51.976;5.810;2023-07-31T04:32:17;18.8;74.0
78514;SHT31;67814;51.976;5.810;2023-07-31T04:34:47;18.8;74.9
78514;SHT31;67814;51.976;5.810;2023-07-31T04:37:15;18.8;74.7
78514;SHT31;67814;51.976;5.810;2023-07-31T04:39:46;18.8;74.1
78514;SHT31;67814;51.976;5.810;2023-07-31T04:42:14;18.8;74.1
78514;SHT31;67814;51.976;5.810;2023-07-31T04:44:43;18.8;74.1
78514;SHT31;67814;51.976;5.810;2023-07-31T04:47:11;18.8;73.8
78514;SHT31;67814;51.976;5.810;2023-07-31T04:49:40;18.8;73.7
78514;SHT31;67814;51.976;5.810;2023-07-31T04:52:08;18.9;74.6
78514;SHT31;67814;51.976;5.810;2023-07-31T04:54:37;18.9;74.3
78514;SHT31;67814;51.976;5.810;2023-07-31T04:57:05;18.9;73.5
78514;SHT31;67814;51.976;5.810;2023-07-31T04:59:34;18.9;73.8
78514;SHT31;67814;51.976;5.810;2023-07-31T05:02:03;18.9;74.6
78514;SHT31;67814;51.976;5.810;2023-07-31T05:04:32;18.9;73.6
78514;SHT31;67814;51.976;5.810;2023-07-31T05:07:00;18.9;73.7
78514;SHT31;67814;51.976;5.810;2023-07-31T05:09:29;18.9;73.4
78514;SHT31;67814;51.976;5.810;2023-07-31T05:11:57;19.0;73.5
78514;SHT31;67814;51.976;5.810;2023-07-31T05:14:26;19.0;73.1
78514;SHT31;67814;51.976;5.810;2023-07-31T05:16:57;19.0;73.7
78514;SHT31;67814;51.976;5.810;2023-07-31T05:19:25;19.0;74.1
78514;SHT31;67814;51.976;5.810;2023-07-31T05:21:53;19.0;73.9
78514;SHT31;67814;51.976;5.810;2023-07-31T05:24:22;19.0;73.3
78514;SHT31;67814;51.976;5.810;2023-07-31T05:26:50;19.0;73.8
78514;SHT31;67814;51.976;5.810;2023-07-31T05:29:19;19.0;74.1
78514;SHT31;67814;51.976;5.810;2023-07-31T05:31:47;19.0;74.0
78514;SHT31;67814;51.976;5.810;2023-07-31T05:34:16;18.9;74.0
78514;SHT31;67814;51.976;5.810;2023-07-31T05:36:44;18.9;74.3
78514;SHT31;67814;51.976;5.810;2023-07-31T05:39:13;18.9;74.3
78514;SHT31;67814;51.976;5.810;2023-07-31T05:41:41;18.9;74.9
78514;SHT31;67814;51.976;5.810;2023-07-31T05:44:10;18.9;75.0
78514;SHT31;67814;51.976;5.810;2023-07-31T05:46:38;18.9;74.9
78514;SHT31;67814;51.976;5.810;2023-07-31T05:49:07;18.9;74.9
78514;SHT31;67814;51.976;5.810;2023-07-31T05:51:35;18.8;75.3
78514;SHT31;67814;51.976;5.810;2023-07-31T05:54:04;18.8;75.4
78514;SHT31;67814;51.976;5.810;2023-07-31T05:56:32;18.7;75.9
78514;SHT31;67814;51.976;5.810;2023-07-31T05:59:01;18.7;76.1
78514;SHT31;67814;51.976;5.810;2023-07-31T06:01:31;18.6;76.5
78514;SHT31;67814;51.976;5.810;2023-07-31T06:03:59;18.6;76.5
78514;SHT31;67814;51.976;5.810;2023-07-31T06:06:29;18.6;76.8
78514;SHT31;67814;51.976;5.810;2023-07-31T06:08:57;18.5;77.6
78514;SHT31;67814;51.976;5.810;2023-07-31T06:11:28;18.5;77.7
78514;SHT31;67814;51.976;5.810;2023-07-31T06:13:56;18.5;77.8
78514;SHT31;67814;51.976;5.810;2023-07-31T06:16:25;18.5;78.0
78514;SHT31;67814;51.976;5.810;2023-07-31T06:18:54;18.5;78.3
78514;SHT31;67814;51.976;5.810;2023-07-31T06:21:23;18.5;78.5
78514;SHT31;67814;51.976;5.810;2023-07-31T06:23:51;18.5;78.7
78514;SHT31;67814;51.976;5.810;2023-07-31T06:26:20;18.5;78.9
78514;SHT31;67814;51.976;5.810;2023-07-31T06:28:48;18.5;79.1
78514;SHT31;67814;51.976;5.810;2023-07-31T06:31:17;18.5;79.3
78514;SHT31;67814;51.976;5.810;2023-07-31T06:33:49;18.5;79.2
78514;SHT31;67814;51.976;5.810;2023-07-31T06:36:17;18.5;79.4
78514;SHT31;67814;51.976;5.810;2023-07-31T06:38:46;18.5;79.6
78514;SHT31;67814;51.976;5.810;2023-07-31T06:41:14;18.5;79.7
78514;SHT31;67814;51.976;5.810;2023-07-31T06:43:43;18.5;79.7
78514;SHT31;67814;51.976;5.810;2023-07-31T06:46:13;18.5;79.7
78514;SHT31;67814;51.976;5.810;2023-07-31T06:48:42;18.5;79.8
78514;SHT31;67814;51.976;5.810;2023-07-31T06:51:10;18.6;79.6
78514;SHT31;67814;51.976;5.810;2023-07-31T06:53:38;18.6;79.6
78514;SHT31;67814;51.976;5.810;2023-07-31T06:56:07;18.6;79.6
78514;SHT31;67814;51.976;5.810;2023-07-31T06:58:36;18.6;79.8
78514;SHT31;67814;51.976;5.810;2023-07-31T07:01:04;18.6;79.5
78514;SHT31;67814;51.976;5.810;2023-07-31T07:03:33;18.6;79.4
78514;SHT31;67814;51.976;5.810;2023-07-31T07:06:01;18.7;79.6
78514;SHT31;67814;51.976;5.810;2023-07-31T07:08:31;18.7;79.9
78514;SHT31;67814;51.976;5.810;2023-07-31T07:10:59;18.7;79.8
78514;SHT31;67814;51.976;5.810;2023-07-31T07:13:30;18.7;79.7
78514;SHT31;67814;51.976;5.810;2023-07-31T07:15:58;18.8;79.8
78514;SHT31;67814;51.976;5.810;2023-07-31T07:18:26;18.8;79.7
78514;SHT31;67814;51.976;5.810;2023-07-31T07:20:57;18.8;79.9
78514;SHT31;67814;51.976;5.810;2023-07-31T07:23:29;18.9;79.8
78514;SHT31;67814;51.976;5.810;2023-07-31T07:25:58;18.9;79.7
78514;SHT31;67814;51.976;5.810;2023-07-31T07:28:26;18.9;80.0
78514;SHT31;67814;51.976;5.810;2023-07-31T07:30:55;18.9;79.6
78514;SHT31;67814;51.976;5.810;2023-07-31T07:33:24;18.9;79.3
78514;SHT31;67814;51.976;5.810;2023-07-31T07:35:53;18.9;79.3
78514;SHT31;67814;51.976;5.810;2023-07-31T07:38:21;18.9;79.0
78514;SHT31;67814;51.976;5.810;2023-07-31T07:40:50;18.9;79.3
78514;SHT31;67814;51.976;5.810;2023-07-31T07:43:20;18.9;79.3
78514;SHT31;67814;51.976;5.810;2023-07-31T07:45:48;18.9;79.1
78514;SHT31;67814;51.976;5.810;2023-07-31T07:48:17;18.9;79.5
78514;SHT31;67814;51.976;5.810;2023-07-31T07:50:46;18.9;79.6
78514;SHT31;67814;51.976;5.810;2023-07-31T07:53:14;19.0;79.4
78514;SHT31;67814;51.976;5.810;2023-07-31T07:55:43;19.0;79.4
78514;SHT31;67814;51.976;5.810;2023-07-31T07:58:11;19.0;79.5
78514;SHT31;67814;51.976;5.810;2023-07-31T08:00:40;19.0;79.4
78514;SHT31;67814;51.976;5.810;2023-07-31T08:03:10;19.1;79.5
78514;SHT31;67814;51.976;5.810;2023-07-31T08:05:39;19.1;79.4
78514;SHT31;67814;51.976;5.810;2023-07-31T08:08:07;19.1;79.6
78514;SHT31;67814;51.976;5.810;2023-07-31T08:10:36;19.2;79.2
78514;SHT31;67814;51.976;5.810;2023-07-31T08:13:04;19.2;79.3
78514;SHT31;67814;51.976;5.810;2023-07-31T08:15:33;19.2;78.7
78514;SHT31;67814;51.976;5.810;2023-07-31T08:18:01;19.3;78.8
78514;SHT31;67814;51.976;5.810;2023-07-31T08:20:30;19.3;78.9
78514;SHT31;67814;51.976;5.810;2023-07-31T08:22:58;19.3;78.7
78514;SHT31;67814;51.976;5.810;2023-07-31T08:25:27;19.3;78.7
78514;SHT31;67814;51.976;5.810;2023-07-31T08:27:55;19.4;78.9
78514;SHT31;67814;51.976;5.810;2023-07-31T08:30:24;19.4;78.9
78514;SHT31;67814;51.976;5.810;2023-07-31T08:32:52;19.4;79.0
78514;SHT31;67814;51.976;5.810;2023-07-31T08:35:21;19.4;78.9
78514;SHT31;67814;51.976;5.810;2023-07-31T08:37:49;19.5;79.3
78514;SHT31;67814;51.976;5.810;2023-07-31T08:40:18;19.5;79.2
78514;SHT31;67814;51.976;5.810;2023-07-31T08:42:49;19.5;79.1
78514;SHT31;67814;51.976;5.810;2023-07-31T08:45:20;19.5;78.9
78514;SHT31;67814;51.976;5.810;2023-07-31T08:47:50;19.5;79.3
78514;SHT31;67814;51.976;5.810;2023-07-31T08:50:21;19.5;79.3
78514;SHT31;67814;51.976;5.810;2023-07-31T08:52:51;19.5;78.7
78514;SHT31;67814;51.976;5.810;2023-07-31T08:55:20;19.6;78.8
78514;SHT31;67814;51.976;5.810;2023-07-31T08:57:51;19.6;78.5
78514;SHT31;67814;51.976;5.810;2023-07-31T09:00:20;19.6;78.9
78514;SHT31;67814;51.976;5.810;2023-07-31T09:02:54;19.6;79.1
78514;SHT31;67814;51.976;5.810;2023-07-31T09:05:26;19.6;78.9
78514;SHT31;67814;51.976;5.810;2023-07-31T09:07:56;19.6;78.8
78514;SHT31;67814;51.976;5.810;2023-07-31T09:10:25;19.6;78.7
78514;SHT31;67814;51.976;5.810;2023-07-31T09:12:53;19.7;78.7
78514;SHT31;67814;51.976;5.810;2023-07-31T09:15:23;19.7;78.3
78514;SHT31;67814;51.976;5.810;2023-07-31T09:17:59;19.7;78.2
78514;SHT31;67814;51.976;5.810;2023-07-31T09:20:29;19.6;78.4
78514;SHT31;67814;51.976;5.810;2023-07-31T09:23:08;19.6;78.7
78514;SHT31;67814;51.976;5.810;2023-07-31T09:25:38;19.6;78.5
78514;SHT31;67814;51.976;5.810;2023-07-31T09:28:09;19.6;78.6
78514;SHT31;67814;51.976;5.810;2023-07-31T09:30:48;19.6;78.7
78514;SHT31;67814;51.976;5.810;2023-07-31T09:33:20;19.6;78.7
78514;SHT31;67814;51.976;5.810;2023-07-31T09:35:49;19.6;79.0
78514;SHT31;67814;51.976;5.810;2023-07-31T09:38:18;19.6;79.0
78514;SHT31;67814;51.976;5.810;2023-07-31T09:40:48;19.6;78.9
78514;SHT31;67814;51.976;5.810;2023-07-31T09:43:19;19.6;78.8
78514;SHT31;67814;51.976;5.810;2023-07-31T09:45:55;19.7;78.9
78514;SHT31;67814;51.976;5.810;2023-07-31T09:48:25;19.7;78.8
78514;SHT31;67814;51.976;5.810;2023-07-31T09:51:04;19.7;78.2
78514;SHT31;67814;51.976;5.810;2023-07-31T09:53:32;19.8;78.4
78514;SHT31;67814;51.976;5.810;2023-07-31T09:56:02;19.8;78.6
78514;SHT31;67814;51.976;5.810;2023-07-31T09:58:36;19.8;78.4
78514;SHT31;67814;51.976;5.810;2023-07-31T10:01:05;19.9;78.5
78514;SHT31;67814;51.976;5.810;2023-07-31T10:03:36;19.9;78.0
78514;SHT31;67814;51.976;5.810;2023-07-31T10:06:08;19.9;78.3
78514;SHT31;67814;51.976;5.810;2023-07-31T10:08:39;20.0;78.2
78514;SHT31;67814;51.976;5.810;2023-07-31T10:11:10;20.0;78.1
78514;SHT31;67814;51.976;5.810;2023-07-31T10:13:42;20.0;77.8
78514;SHT31;67814;51.976;5.810;2023-07-31T10:16:12;20.1;77.4
78514;SHT31;67814;51.976;5.810;2023-07-31T10:18:43;20.1;77.5
78514;SHT31;67814;51.976;5.810;2023-07-31T10:21:13;20.1;77.1
78514;SHT31;67814;51.976;5.810;2023-07-31T10:23:43;20.1;76.8
78514;SHT31;67814;51.976;5.810;2023-07-31T10:26:14;20.2;77.6
78514;SHT31;67814;51.976;5.810;2023-07-31T10:28:44;20.2;77.7
78514;SHT31;67814;51.976;5.810;2023-07-31T10:31:15;20.2;76.9
78514;SHT31;67814;51.976;5.810;2023-07-31T10:33:46;20.3;77.3
78514;SHT31;67814;51.976;5.810;2023-07-31T10:36:17;20.3;76.4
78514;SHT31;67814;51.976;5.810;2023-07-31T10:38:48;20.3;77.2
78514;SHT31;67814;51.976;5.810;2023-07-31T10:41:18;20.4;77.1
78514;SHT31;67814;51.976;5.810;2023-07-31T10:43:47;20.4;77.2
78514;SHT31;67814;51.976;5.810;2023-07-31T10:46:16;20.4;77.5
78514;SHT31;67814;51.976;5.810;2023-07-31T10:48:44;20.5;77.3
78514;SHT31;67814;51.976;5.810;2023-07-31T10:51:13;20.5;76.8
78514;SHT31;67814;51.976;5.810;2023-07-31T10:53:43;20.5;76.1
78514;SHT31;67814;51.976;5.810;2023-07-31T10:56:12;20.6;77.2
78514;SHT31;67814;51.976;5.810;2023-07-31T10:58:45;20.6;76.5
78514;SHT31;67814;51.976;5.810;2023-07-31T11:01:14;20.7;76.2
78514;SHT31;67814;51.976;5.810;2023-07-31T11:03:44;20.7;75.6
78514;SHT31;67814;51.976;5.810;2023-07-31T11:06:13;20.7;75.5
78514;SHT31;67814;51.976;5.810;2023-07-31T11:08:46;20.8;75.8
78514;SHT31;67814;51.976;5.810;2023-07-31T11:11:17;20.8;75.8
78514;SHT31;67814;51.976;5.810;2023-07-31T11:13:48;20.8;76.3
78514;SHT31;67814;51.976;5.810;2023-07-31T11:16:20;20.8;75.8
78514;SHT31;67814;51.976;5.810;2023-07-31T11:18:51;20.9;75.8
78514;SHT31;67814;51.976;5.810;2023-07-31T11:21:24;20.9;75.5
78514;SHT31;67814;51.976;5.810;2023-07-31T11:23:57;20.9;75.4
78514;SHT31;67814;51.976;5.810;2023-07-31T11:26:25;20.9;74.9
78514;SHT31;67814;51.976;5.810;2023-07-31T11:28:57;20.8;75.7
78514;SHT31;67814;51.976;5.810;2023-07-31T11:31:27;20.8;75.9
78514;SHT31;67814;51.976;5.810;2023-07-31T11:34:06;20.8;75.6
78514;SHT31;67814;51.976;5.810;2023-07-31T11:36:35;20.7;76.2
78514;SHT31;67814;51.976;5.810;2023-07-31T11:39:08;20.7;76.3
78514;SHT31;67814;51.976;5.810;2023-07-31T11:41:40;20.7;76.6
78514;SHT31;67814;51.976;5.810;2023-07-31T11:44:09;20.7;76.6
78514;SHT31;67814;51.976;5.810;2023-07-31T11:46:37;20.7;76.2
78514;SHT31;67814;51.976;5.810;2023-07-31T11:49:07;20.7;76.5
78514;SHT31;67814;51.976;5.810;2023-07-31T11:51:36;20.8;76.8
78514;SHT31;67814;51.976;5.810;2023-07-31T11:54:05;20.8;76.3
78514;SHT31;67814;51.976;5.810;2023-07-31T11:56:33;20.8;76.7
78514;SHT31;67814;51.976;5.810;2023-07-31T11:59:02;20.8;76.0
78514;SHT31;67814;51.976;5.810;2023-07-31T12:01:35;20.9;76.3
78514;SHT31;67814;51.976;5.810;2023-07-31T12:04:06;20.9;75.9
78514;SHT31;67814;51.976;5.810;2023-07-31T12:06:36;20.9;76.2
78514;SHT31;67814;51.976;5.810;2023-07-31T12:09:05;20.9;75.2
78514;SHT31;67814;51.976;5.810;2023-07-31T12:11:44;21.0;75.9
78514;SHT31;67814;51.976;5.810;2023-07-31T12:14:22;21.0;75.3
78514;SHT31;67814;51.976;5.810;2023-07-31T12:16:55;21.0;76.2
78514;SHT31;67814;51.976;5.810;2023-07-31T12:19:25;21.0;75.2
78514;SHT31;67814;51.976;5.810;2023-07-31T12:21:57;21.0;75.3
78514;SHT31;67814;51.976;5.810;2023-07-31T12:24:26;21.0;75.5
78514;SHT31;67814;51.976;5.810;2023-07-31T12:26:55;21.1;75.0
78514;SHT31;67814;51.976;5.810;2023-07-31T12:29:23;21.1;75.5
78514;SHT31;67814;51.976;5.810;2023-07-31T12:31:52;21.1;75.2
78514;SHT31;67814;51.976;5.810;2023-07-31T12:34:20;21.1;75.2
78514;SHT31;67814;51.976;5.810;2023-07-31T12:36:49;21.1;75.5
78514;SHT31;67814;51.976;5.810;2023-07-31T12:39:19;21.1;75.3
78514;SHT31;67814;51.976;5.810;2023-07-31T12:41:48;21.1;75.4
78514;SHT31;67814;51.976;5.810;2023-07-31T12:44:16;21.0;75.5
78514;SHT31;67814;51.976;5.810;2023-07-31T12:46:45;21.0;75.7
78514;SHT31;67814;51.976;5.810;2023-07-31T12:49:14;21.0;76.1
78514;SHT31;67814;51.976;5.810;2023-07-31T12:51:42;21.0;76.4
78514;SHT31;67814;51.976;5.810;2023-07-31T12:54:10;21.0;76.3
78514;SHT31;67814;51.976;5.810;2023-07-31T12:56:40;21.0;76.3
78514;SHT31;67814;51.976;5.810;2023-07-31T12:59:08;21.0;75.9
78514;SHT31;67814;51.976;5.810;2023-07-31T13:01:37;21.0;75.9
78514;SHT31;67814;51.976;5.810;2023-07-31T13:04:05;21.0;76.1
78514;SHT31;67814;51.976;5.810;2023-07-31T13:06:35;21.0;76.4
78514;SHT31;67814;51.976;5.810;2023-07-31T13:09:04;21.0;76.2
78514;SHT31;67814;51.976;5.810;2023-07-31T13:11:32;21.0;77.0
78514;SHT31;67814;51.976;5.810;2023-07-31T13:14:01;21.0;76.4
78514;SHT31;67814;51.976;5.810;2023-07-31T13:16:29;21.1;76.2
78514;SHT31;67814;51.976;5.810;2023-07-31T13:18:58;21.1;75.8
78514;SHT31;67814;51.976;5.810;2023-07-31T13:21:26;21.2;75.2
78514;SHT31;67814;51.976;5.810;2023-07-31T13:23:55;21.2;76.1
78514;SHT31;67814;51.976;5.810;2023-07-31T13:26:24;21.2;75.4
78514;SHT31;67814;51.976;5.810;2023-07-31T13:28:52;21.2;75.7
78514;SHT31;67814;51.976;5.810;2023-07-31T13:31:21;21.2;75.7
78514;SHT31;67814;51.976;5.810;2023-07-31T13:33:49;21.3;74.9
78514;SHT31;67814;51.976;5.810;2023-07-31T13:36:18;21.3;74.8
78514;SHT31;67814;51.976;5.810;2023-07-31T13:38:47;21.3;75.3
78514;SHT31;67814;51.976;5.810;2023-07-31T13:41:15;21.3;75.1
78514;SHT31;67814;51.976;5.810;2023-07-31T13:43:43;21.4;74.4
78514;SHT31;67814;51.976;5.810;2023-07-31T13:46:12;21.4;74.5
78514;SHT31;67814;51.976;5.810;2023-07-31T13:48:40;21.4;74.8
78514;SHT31;67814;51.976;5.810;2023-07-31T13:51:09;21.4;74.8
78514;SHT31;67814;51.976;5.810;2023-07-31T13:53:37;21.4;74.1
78514;SHT31;67814;51.976;5.810;2023-07-31T13:56:06;21.4;74.7
78514;SHT31;67814;51.976;5.810;2023-07-31T13:58:35;21.4;74.6
78514;SHT31;67814;51.976;5.810;2023-07-31T14:01:04;21.4;74.8
78514;SHT31;67814;51.976;5.810;2023-07-31T14:03:32;21.4;75.0
78514;SHT31;67814;51.976;5.810;2023-07-31T14:06:01;21.4;74.8
78514;SHT31;67814;51.976;5.810;2023-07-31T14:08:30;21.3;74.6
78514;SHT31;67814;51.976;5.810;2023-07-31T14:10:58;21.3;74.2
78514;SHT31;67814;51.976;5.810;2023-07-31T14:13:27;21.3;74.4
78514;SHT31;67814;51.976;5.810;2023-07-31T14:15:55;21.3;75.1
78514;SHT31;67814;51.976;5.810;2023-07-31T14:18:24;21.2;75.0
78514;SHT31;67814;51.976;5.810;2023-07-31T14:20:55;21.2;75.3
78514;SHT31;67814;51.976;5.810;2023-07-31T14:23:23;21.2;75.9
78514;SHT31;67814;51.976;5.810;2023-07-31T14:25:54;21.2;75.8
78514;SHT31;67814;51.976;5.810;2023-07-31T14:28:22;21.2;75.8
78514;SHT31;67814;51.976;5.810;2023-07-31T14:30:51;21.2;76.0
78514;SHT31;67814;51.976;5.810;2023-07-31T14:33:19;21.2;76.1
78514;SHT31;67814;51.976;5.810;2023-07-31T14:35:48;21.1;76.1
78514;SHT31;67814;51.976;5.810;2023-07-31T14:38:16;21.1;75.9
78514;SHT31;67814;51.976;5.810;2023-07-31T14:40:45;21.1;76.2
78514;SHT31;67814;51.976;5.810;2023-07-31T14:43:14;21.1;76.4
78514;SHT31;67814;51.976;5.810;2023-07-31T14:45:42;21.1;76.3
78514;SHT31;67814;51.976;5.810;2023-07-31T14:48:12;21.1;76.4
78514;SHT31;67814;51.976;5.810;2023-07-31T14:50:41;21.1;76.5
78514;SHT31;67814;51.976;5.810;2023-07-31T14:53:09;21.1;76.5
78514;SHT31;67814;51.976;5.810;2023-07-31T14:55:38;21.1;76.4
78514;SHT31;67814;51.976;5.810;2023-07-31T14:58:06;21.1;76.2
78514;SHT31;67814;51.976;5.810;2023-07-31T15:00:37;21.1;76.0
78514;SHT31;67814;51.976;5.810;2023-07-31T15:03:07;21.1;75.8
78514;SHT31;67814;51.976;5.810;2023-07-31T15:05:36;21.1;75.8
78514;SHT31;67814;51.976;5.810;2023-07-31T15:08:05;21.1;75.9
78514;SHT31;67814;51.976;5.810;2023-07-31T15:10:33;21.0;76.1
78514;SHT31;67814;51.976;5.810;2023-07-31T15:13:02;21.0;76.3
78514;SHT31;67814;51.976;5.810;2023-07-31T15:15:30;21.0;76.3
78514;SHT31;67814;51.976;5.810;2023-07-31T15:17:59;21.0;76.7
78514;SHT31;67814;51.976;5.810;2023-07-31T15:20:28;21.0;76.4
78514;SHT31;67814;51.976;5.810;2023-07-31T15:22:57;21.0;76.6
78514;SHT31;67814;51.976;5.810;2023-07-31T15:25:25;21.0;76.6
78514;SHT31;67814;51.976;5.810;2023-07-31T15:27:54;21.0;76.2
78514;SHT31;67814;51.976;5.810;2023-07-31T15:30:24;21.0;76.5
78514;SHT31;67814;51.976;5.810;2023-07-31T15:32:53;21.0;76.7
78514;SHT31;67814;51.976;5.810;2023-07-31T15:35:21;21.0;76.7
78514;SHT31;67814;51.976;5.810;2023-07-31T15:37:50;21.0;76.2
78514;SHT31;67814;51.976;5.810;2023-07-31T15:40:18;21.0;76.2
78514;SHT31;67814;51.976;5.810;2023-07-31T15:42:47;20.9;76.2
78514;SHT31;67814;51.976;5.810;2023-07-31T15:45:15;20.9;76.3
78514;SHT31;67814;51.976;5.810;2023-07-31T15:47:44;20.9;76.6
78514;SHT31;67814;51.976;5.810;2023-07-31T15:50:14;20.9;76.7
78514;SHT31;67814;51.976;5.810;2023-07-31T15:52:43;20.9;76.4
78514;SHT31;67814;51.976;5.810;2023-07-31T15:55:11;20.9;77.0
78514;SHT31;67814;51.976;5.810;2023-07-31T15:57:40;20.8;76.8
78514;SHT31;67814;51.976;5.810;2023-07-31T16:00:09;20.8;76.8
78514;SHT31;67814;51.976;5.810;2023-07-31T16:02:40;20.8;76.3
78514;SHT31;67814;51.976;5.810;2023-07-31T16:05:09;20.8;76.6
78514;SHT31;67814;51.976;5.810;2023-07-31T16:07:37;20.8;76.6
78514;SHT31;67814;51.976;5.810;2023-07-31T16:10:08;20.8;76.5
78514;SHT31;67814;51.976;5.810;2023-07-31T16:12:36;20.8;76.6
78514;SHT31;67814;51.976;5.810;2023-07-31T16:15:05;20.8;76.5